createdAt,value
2022-10-17T00:01:30.728Z,15.45
2022-10-17T00:04:37.091Z,14.50
2022-10-17T00:07:42.116Z,9.58
2022-10-17T00:10:48.138Z,13.32
2022-10-17T00:13:54.240Z,13.48
2022-10-17T00:17:00.881Z,16.15
2022-10-17T00:20:07.353Z,13.93
2022-10-17T00:23:13.693Z,15.30
2022-10-17T00:26:20.222Z,11.95
2022-10-17T00:29:25.717Z,12.43
2022-10-17T00:32:31.785Z,13.60
2022-10-17T00:35:38.300Z,14.55
2022-10-17T00:38:44.940Z,9.15
2022-10-17T00:41:51.790Z,11.60
2022-10-17T00:45:03.029Z,10.93
2022-10-17T00:48:21.212Z,11.40
2022-10-17T00:51:16.688Z,14.83
2022-10-17T00:54:23.206Z,12.40
2022-10-17T00:57:29.737Z,17.60
2022-10-17T01:00:35.015Z,13.80
2022-10-17T01:03:40.596Z,12.25
2022-10-17T01:06:47.104Z,20.00
2022-10-17T01:09:55.287Z,13.95
2022-10-17T01:13:26.929Z,13.00
2022-10-17T01:16:59.182Z,17.80
2022-10-17T01:20:31.017Z,12.88
2022-10-17T01:24:16.014Z,13.80
2022-10-17T01:27:40.739Z,19.80
2022-10-17T01:31:30.933Z,18.95
2022-10-17T01:34:59.527Z,13.13
2022-10-17T01:38:13.316Z,13.13
2022-10-17T01:41:40.705Z,13.22
2022-10-17T01:45:02.369Z,19.70
2022-10-17T01:48:10.152Z,12.68
2022-10-17T01:51:19.163Z,20.82
2022-10-17T01:54:18.765Z,20.57
2022-10-17T01:57:35.353Z,14.45
2022-10-17T02:00:42.971Z,13.20
2022-10-17T02:03:49.081Z,13.55
2022-10-17T02:06:54.883Z,18.27
2022-10-17T02:10:01.411Z,17.62
2022-10-17T02:13:15.038Z,13.25
2022-10-17T02:16:59.322Z,15.00
2022-10-17T02:20:24.359Z,18.07
2022-10-17T02:23:49.137Z,18.30
2022-10-17T02:27:13.198Z,19.05
2022-10-17T02:30:39.456Z,16.40
2022-10-17T02:33:54.945Z,14.75
2022-10-17T02:37:10.307Z,15.10
2022-10-17T02:40:15.920Z,11.88
2022-10-17T02:43:23.012Z,13.35
2022-10-17T02:46:30.938Z,17.07
2022-10-17T02:49:48.717Z,28.27
2022-10-17T02:53:10.941Z,16.87
2022-10-17T02:56:19.208Z,16.70
2022-10-17T02:59:25.096Z,13.28
2022-10-17T03:02:31.736Z,13.25
2022-10-17T03:05:41.847Z,15.60
2022-10-17T03:08:47.031Z,14.05
2022-10-17T03:11:53.460Z,13.48
2022-10-17T03:14:59.784Z,18.87
2022-10-17T03:18:06.418Z,12.80
2022-10-17T03:21:12.739Z,15.68
2022-10-17T03:24:19.274Z,14.50
2022-10-17T03:27:25.154Z,12.33
2022-10-17T03:30:31.022Z,12.53
2022-10-17T03:33:36.759Z,22.58
2022-10-17T03:36:43.141Z,12.60
2022-10-17T03:39:49.459Z,16.35
2022-10-17T03:42:54.993Z,21.33
2022-10-17T03:46:01.541Z,16.37
2022-10-17T03:49:08.446Z,15.30
2022-10-17T03:52:14.319Z,13.08
2022-10-17T03:55:19.129Z,12.95
2022-10-17T03:58:23.866Z,15.80
2022-10-17T04:01:32.203Z,13.32
2022-10-17T04:04:38.714Z,14.60
2022-10-17T04:07:44.700Z,15.45
2022-10-17T04:10:51.122Z,13.78
2022-10-17T04:13:58.889Z,16.60
2022-10-17T04:17:05.513Z,14.53
2022-10-17T04:20:10.920Z,15.75
2022-10-17T04:23:16.144Z,19.12
2022-10-17T04:26:22.708Z,15.30
2022-10-17T04:29:30.534Z,14.18
2022-10-17T04:32:47.141Z,15.28
2022-10-17T04:35:53.775Z,19.23
2022-10-17T04:39:01.146Z,19.32
2022-10-17T04:42:06.724Z,16.10
2022-10-17T04:45:14.130Z,16.20
2022-10-17T04:48:21.830Z,14.78
2022-10-17T04:51:31.129Z,13.68
2022-10-17T04:54:38.820Z,14.60
2022-10-17T04:57:47.582Z,18.23
2022-10-17T05:00:54.029Z,18.95
2022-10-17T05:04:01.294Z,22.55
2022-10-17T05:07:06.762Z,20.08
2022-10-17T05:10:14.006Z,18.85
2022-10-17T05:13:20.628Z,14.90
2022-10-17T05:16:26.484Z,14.23
2022-10-17T05:19:25.538Z,18.57
2022-10-17T05:25:51.640Z,18.23
2022-10-17T05:29:00.425Z,18.75
2022-10-17T05:32:07.756Z,26.27
2022-10-17T05:35:13.677Z,18.82
2022-10-17T05:38:21.419Z,19.62
2022-10-17T05:41:27.588Z,17.65
2022-10-17T05:44:33.996Z,14.78
2022-10-17T05:47:40.868Z,13.25
2022-10-17T05:50:49.108Z,14.05
2022-10-17T05:53:56.185Z,15.90
2022-10-17T05:57:12.334Z,20.23
2022-10-17T06:00:20.421Z,17.87
2022-10-17T06:03:28.226Z,14.45
2022-10-17T06:06:36.263Z,12.43
2022-10-17T06:09:43.438Z,11.48
2022-10-17T06:12:52.293Z,17.32
2022-10-17T06:15:58.234Z,12.80
2022-10-17T06:19:03.776Z,17.45
2022-10-17T06:22:09.778Z,11.68
2022-10-17T06:25:15.634Z,13.10
2022-10-17T06:28:21.931Z,11.73
2022-10-17T06:31:30.306Z,14.07
2022-10-17T06:34:36.054Z,11.43
2022-10-17T06:37:48.039Z,13.00
2022-10-17T06:40:55.581Z,14.60
2022-10-17T06:44:02.960Z,12.25
2022-10-17T06:47:16.519Z,20.90
2022-10-17T06:50:24.863Z,13.00
2022-10-17T06:53:33.955Z,13.95
2022-10-17T06:56:45.107Z,14.40
2022-10-17T06:59:52.496Z,12.37
2022-10-17T07:03:00.387Z,12.30
2022-10-17T07:06:10.200Z,15.32
2022-10-17T07:09:19.978Z,13.00
2022-10-17T07:12:24.870Z,12.30
2022-10-17T07:15:36.404Z,16.48
2022-10-17T07:18:42.030Z,11.85
2022-10-17T07:21:51.013Z,10.58
2022-10-17T07:24:58.353Z,9.30
2022-10-17T07:28:10.872Z,10.50
2022-10-17T07:31:26.525Z,8.80
2022-10-17T07:34:34.411Z,10.58
2022-10-17T07:37:41.214Z,7.80
2022-10-17T07:40:49.989Z,8.08
2022-10-17T07:43:55.708Z,11.50
2022-10-17T07:47:02.876Z,8.30
2022-10-17T07:50:09.549Z,7.37
2022-10-17T07:53:15.734Z,12.30
2022-10-17T07:56:23.240Z,8.83
2022-10-17T07:59:29.906Z,7.95
2022-10-17T08:02:33.799Z,12.65
2022-10-17T08:05:44.007Z,10.82
2022-10-17T08:08:43.243Z,10.53
2022-10-17T08:11:31.342Z,10.68
2022-10-17T08:14:27.568Z,10.58
2022-10-17T08:17:13.447Z,10.45
2022-10-17T08:20:05.696Z,7.92
2022-10-17T08:23:16.705Z,11.88
2022-10-17T08:26:26.774Z,7.35
2022-10-17T08:29:34.037Z,8.43
2022-10-17T08:32:42.551Z,10.35
2022-10-17T08:35:48.047Z,9.78
2022-10-17T08:38:53.815Z,7.00
2022-10-17T08:42:24.122Z,11.43
2022-10-17T08:45:46.093Z,8.48
2022-10-17T08:48:58.469Z,8.70
2022-10-17T08:52:10.690Z,11.18
2022-10-17T08:58:56.385Z,7.90
2022-10-17T09:02:39.267Z,9.75
2022-10-17T09:06:06.358Z,7.78
2022-10-17T09:09:40.857Z,9.05
2022-10-17T09:13:14.441Z,9.75
2022-10-17T09:16:38.934Z,5.00
2022-10-17T09:20:18.547Z,6.37
2022-10-17T09:23:36.166Z,8.13
2022-10-17T09:26:41.889Z,4.50
2022-10-17T09:29:47.595Z,8.55
2022-10-17T09:32:54.592Z,4.72
2022-10-17T09:36:01.104Z,5.87
2022-10-17T09:39:22.844Z,7.37
2022-10-17T09:42:16.203Z,13.18
2022-10-17T09:45:38.395Z,12.78
2022-10-17T09:48:59.865Z,5.28
2022-10-17T09:52:05.063Z,5.87
2022-10-17T09:55:16.963Z,5.53
2022-10-17T09:58:23.314Z,4.92
2022-10-17T10:01:41.317Z,4.15
2022-10-17T10:05:03.274Z,12.00
2022-10-17T10:07:54.644Z,4.00
2022-10-17T10:10:59.898Z,8.73
2022-10-17T10:14:05.861Z,8.33
2022-10-17T10:17:13.460Z,4.20
2022-10-17T10:20:47.918Z,6.45
2022-10-17T10:23:57.399Z,11.85
2022-10-17T10:27:05.337Z,9.18
2022-10-17T10:30:12.440Z,4.17
2022-10-17T10:33:16.990Z,5.62
2022-10-17T10:36:22.217Z,4.08
2022-10-17T10:39:42.869Z,5.28
2022-10-17T10:42:51.942Z,4.90
2022-10-17T10:45:58.344Z,5.30
2022-10-17T10:49:16.452Z,5.10
2022-10-17T10:52:21.945Z,5.78
2022-10-17T10:55:53.826Z,5.42
2022-10-17T10:59:07.758Z,6.15
2022-10-17T11:02:39.633Z,4.35
2022-10-17T11:06:13.371Z,9.40
2022-10-17T11:09:42.703Z,5.03
2022-10-17T11:13:29.552Z,3.55
2022-10-17T11:16:41.876Z,5.58
2022-10-17T11:19:59.597Z,4.40
2022-10-17T11:23:08.693Z,5.75
2022-10-17T11:26:17.306Z,4.80
2022-10-17T11:29:25.295Z,5.40
2022-10-17T11:32:53.790Z,13.05
2022-10-17T11:35:54.385Z,4.20
2022-10-17T11:38:57.709Z,2.85
2022-10-17T11:42:03.504Z,2.35
2022-10-17T11:44:50.549Z,4.95
2022-10-17T11:47:57.768Z,3.72
2022-10-17T11:54:16.318Z,9.05
2022-10-17T11:57:50.584Z,7.53
2022-10-17T12:01:22.915Z,2.80
2022-10-17T12:04:56.068Z,4.22
2022-10-17T12:08:20.537Z,3.67
2022-10-17T12:12:02.870Z,7.45
2022-10-17T12:15:09.205Z,5.58
2022-10-17T12:18:17.604Z,6.42
2022-10-17T12:21:23.068Z,3.25
2022-10-17T12:24:36.418Z,3.02
2022-10-17T12:27:54.621Z,4.22
2022-10-17T12:31:16.428Z,3.87
2022-10-17T12:34:28.563Z,11.55
2022-10-17T12:38:00.904Z,5.17
2022-10-17T12:41:11.569Z,4.12
2022-10-17T12:44:16.792Z,4.42
2022-10-17T12:47:28.656Z,4.53
2022-10-17T12:51:34.919Z,3.72
2022-10-17T12:54:29.705Z,3.60
2022-10-17T12:57:59.145Z,5.45
2022-10-17T13:01:24.706Z,3.83
2022-10-17T13:04:15.803Z,3.70
2022-10-17T13:07:22.488Z,6.53
2022-10-17T13:10:43.205Z,4.47
2022-10-17T13:14:03.101Z,2.12
2022-10-17T13:17:16.375Z,4.90
2022-10-17T13:20:35.045Z,6.08
2022-10-17T13:23:46.553Z,4.50
2022-10-17T13:26:51.307Z,5.72
2022-10-17T13:29:59.228Z,3.75
2022-10-17T13:33:05.024Z,2.20
2022-10-17T13:36:10.631Z,2.95
2022-10-17T13:39:38.207Z,4.78
2022-10-17T13:42:40.356Z,10.08
2022-10-17T13:45:49.508Z,3.95
2022-10-17T13:48:56.548Z,7.23
2022-10-17T13:52:04.074Z,2.30
2022-10-17T13:55:11.772Z,9.28
2022-10-17T13:58:33.020Z,6.65
2022-10-17T14:01:41.092Z,8.58
2022-10-17T14:05:15.585Z,3.58
2022-10-17T14:08:15.126Z,3.42
2022-10-17T14:11:42.859Z,10.10
2022-10-17T14:15:09.637Z,8.13
2022-10-17T14:17:57.857Z,7.78
2022-10-17T14:24:37.900Z,13.68
2022-10-17T14:27:49.509Z,4.35
2022-10-17T14:31:02.773Z,7.50
2022-10-17T14:34:09.165Z,14.45
2022-10-17T14:37:15.753Z,4.05
2022-10-17T14:40:22.349Z,7.42
2022-10-17T14:43:31.608Z,3.75
2022-10-17T14:46:38.001Z,4.72
2022-10-17T14:49:50.717Z,8.28
2022-10-17T14:52:56.883Z,9.90
2022-10-17T14:56:13.822Z,24.75
2022-10-17T14:59:51.764Z,10.43
2022-10-17T15:02:30.450Z,15.95
2022-10-17T15:05:36.336Z,8.83
2022-10-17T15:11:49.933Z,8.68
2022-10-17T15:14:55.916Z,11.50
2022-10-17T15:18:02.116Z,3.87
2022-10-17T15:21:25.621Z,4.42
2022-10-17T15:24:16.847Z,17.40
2022-10-17T15:27:35.726Z,9.30
2022-10-17T15:30:47.023Z,14.85
2022-10-17T15:33:53.813Z,46.02
2022-10-17T15:37:06.024Z,26.77
2022-10-17T15:40:11.085Z,24.70
2022-10-17T15:43:19.931Z,15.88
2022-10-17T15:46:32.132Z,17.48
2022-10-17T15:49:37.809Z,14.20
2022-10-17T15:52:43.913Z,19.92
2022-10-17T15:55:50.242Z,28.70
2022-10-17T15:58:56.653Z,16.07
2022-10-17T16:02:03.097Z,35.92
2022-10-17T16:05:09.847Z,29.57
2022-10-17T16:08:15.890Z,154.68
2022-10-17T16:11:21.484Z,93.17
2022-10-17T16:14:30.650Z,109.70
2022-10-17T16:17:37.274Z,42.78
2022-10-17T16:20:43.056Z,30.72
2022-10-17T16:23:48.268Z,27.67
2022-10-17T16:26:54.602Z,10.95
2022-10-17T16:30:00.413Z,12.63
2022-10-17T16:33:07.145Z,9.88
2022-10-17T16:36:13.699Z,13.78
2022-10-17T16:39:19.357Z,14.40
2022-10-17T16:42:25.197Z,11.33
2022-10-17T16:45:35.103Z,18.25
2022-10-17T16:51:47.193Z,19.00
2022-10-17T16:54:53.961Z,43.52
2022-10-17T16:57:59.905Z,23.25
2022-10-17T17:01:05.697Z,16.80
2022-10-17T17:04:12.155Z,18.37
2022-10-17T17:07:11.203Z,19.45
2022-10-17T17:10:03.621Z,42.90
2022-10-17T17:13:10.769Z,37.75
2022-10-17T17:16:29.844Z,50.58
2022-10-17T17:19:35.192Z,26.10
2022-10-17T17:22:43.096Z,28.95
2022-10-17T17:25:52.193Z,38.08
2022-10-17T17:28:59.687Z,35.25
2022-10-17T17:32:07.168Z,114.77
2022-10-17T17:35:13.498Z,94.30
2022-10-17T17:38:12.123Z,34.63
2022-10-17T17:41:18.839Z,43.25
2022-10-17T17:44:26.424Z,31.35
2022-10-17T17:47:33.024Z,29.32
2022-10-17T17:50:33.157Z,47.30
2022-10-17T17:53:38.610Z,30.37
2022-10-17T17:56:45.053Z,22.30
2022-10-17T17:59:50.386Z,34.43
2022-10-17T18:02:55.987Z,22.70
2022-10-17T18:06:05.326Z,17.48
2022-10-17T18:09:13.622Z,18.10
2022-10-17T18:12:19.368Z,24.18
2022-10-17T18:15:24.171Z,18.50
2022-10-17T18:18:29.728Z,33.55
2022-10-17T18:21:35.704Z,48.52
2022-10-17T18:24:40.638Z,79.12
2022-10-17T18:27:45.097Z,70.03
2022-10-17T18:30:52.734Z,53.48
2022-10-17T18:33:58.741Z,41.63
2022-10-17T18:37:05.587Z,49.70
2022-10-17T18:40:11.750Z,41.13
2022-10-17T18:43:17.514Z,49.38
2022-10-17T18:46:25.781Z,72.12
2022-10-17T18:49:33.315Z,133.95
2022-10-17T18:52:38.994Z,88.10
2022-10-17T18:58:50.772Z,54.83
2022-10-17T19:01:56.513Z,53.35
2022-10-17T19:05:04.428Z,114.20
2022-10-17T19:08:10.648Z,61.25
2022-10-17T19:11:34.202Z,52.38
2022-10-17T19:14:40.841Z,29.10
2022-10-17T19:17:48.606Z,58.25
2022-10-17T19:20:54.969Z,52.95
2022-10-17T19:24:07.971Z,62.13
2022-10-17T19:27:14.260Z,147.35
2022-10-17T19:30:20.720Z,111.50
2022-10-17T19:36:34.873Z,32.05
2022-10-17T19:39:40.027Z,33.53
2022-10-17T19:42:45.409Z,33.20
2022-10-17T19:45:51.358Z,30.95
2022-10-17T19:48:57.047Z,34.23
2022-10-17T19:52:04.019Z,41.83
2022-10-17T19:55:10.017Z,53.38
2022-10-17T19:58:15.615Z,39.42
2022-10-17T20:01:21.948Z,57.80
2022-10-17T20:04:28.446Z,42.53
2022-10-17T20:07:34.593Z,39.80
2022-10-17T20:10:40.912Z,34.73
2022-10-17T20:13:48.175Z,49.83
2022-10-17T20:16:55.129Z,42.80
2022-10-17T20:20:02.368Z,39.38
2022-10-17T20:23:07.559Z,46.65
2022-10-17T20:29:34.666Z,46.97
2022-10-17T20:32:45.838Z,39.75
2022-10-17T20:35:55.983Z,38.48
2022-10-17T20:39:01.595Z,42.50
2022-10-17T20:42:07.427Z,38.15
2022-10-17T20:45:13.979Z,41.30
2022-10-17T20:48:20.600Z,46.15
2022-10-17T20:51:26.075Z,44.33
2022-10-17T20:54:31.794Z,40.90
2022-10-17T20:57:37.436Z,38.42
2022-10-17T21:00:44.200Z,39.65
2022-10-17T21:03:53.776Z,42.10
2022-10-17T21:06:59.867Z,42.75
2022-10-17T21:10:24.038Z,35.88
2022-10-17T21:13:15.061Z,32.10
2022-10-17T21:16:22.723Z,31.70
2022-10-17T21:19:29.971Z,31.65
2022-10-17T21:22:35.249Z,34.13
2022-10-17T21:25:40.942Z,46.48
2022-10-17T21:28:48.485Z,35.83
2022-10-17T21:31:56.911Z,36.85
2022-10-17T21:35:02.707Z,30.77
2022-10-17T21:38:09.046Z,38.92
2022-10-17T21:41:15.109Z,37.73
2022-10-17T21:44:24.481Z,31.87
2022-10-17T21:47:29.934Z,34.67
2022-10-17T21:50:35.350Z,34.63
2022-10-17T21:53:40.712Z,35.15
2022-10-17T21:56:46.886Z,32.25
2022-10-17T21:59:52.217Z,34.55
2022-10-17T22:02:58.451Z,33.40
2022-10-17T22:06:12.933Z,31.00
2022-10-17T22:09:12.164Z,28.62
2022-10-17T22:12:18.698Z,33.30
2022-10-17T22:15:26.448Z,34.30
2022-10-17T22:18:31.796Z,36.42
2022-10-17T22:21:36.887Z,39.13
2022-10-17T22:24:42.668Z,26.93
2022-10-17T22:27:48.456Z,25.37
2022-10-17T22:30:55.499Z,26.52
2022-10-17T22:34:01.062Z,29.10
2022-10-17T22:37:06.619Z,21.07
2022-10-17T22:40:13.202Z,23.42
2022-10-17T22:43:19.881Z,28.60
2022-10-17T22:46:26.552Z,27.00
2022-10-17T22:49:31.435Z,21.05
2022-10-17T22:52:38.335Z,29.23
2022-10-17T22:55:43.647Z,31.12
2022-10-17T22:58:48.950Z,29.35
2022-10-17T23:01:55.598Z,29.45
2022-10-17T23:05:00.564Z,21.17
2022-10-17T23:08:08.010Z,18.45
2022-10-17T23:11:13.744Z,17.60
2022-10-17T23:14:20.101Z,18.73
2022-10-17T23:17:26.316Z,16.05
2022-10-17T23:20:32.358Z,16.35
2022-10-17T23:23:37.988Z,16.77
2022-10-17T23:26:43.110Z,18.90
2022-10-17T23:29:48.955Z,16.12
2022-10-17T23:32:54.514Z,21.15
2022-10-17T23:36:00.049Z,20.57
2022-10-17T23:39:06.073Z,22.77
2022-10-17T23:42:12.901Z,19.85
2022-10-17T23:45:20.679Z,16.40
2022-10-17T23:48:28.203Z,20.10
2022-10-17T23:51:33.923Z,17.07
2022-10-17T23:57:46.431Z,17.45
